createdAt,value
2018-08-13T00:02:16.200Z,0.60
2018-08-13T00:04:43.926Z,0.60
2018-08-13T00:07:11.631Z,0.70
2018-08-13T00:09:41.844Z,0.63
2018-08-13T00:12:10.382Z,0.60
2018-08-13T00:14:38.196Z,0.70
2018-08-13T00:17:06.179Z,0.60
2018-08-13T00:19:33.907Z,0.70
2018-08-13T00:22:01.830Z,0.70
2018-08-13T00:24:29.549Z,0.60
2018-08-13T00:26:57.231Z,0.73
2018-08-13T00:29:24.913Z,0.63
2018-08-13T00:31:52.576Z,0.60
2018-08-13T00:34:20.297Z,0.77
2018-08-13T00:36:48.020Z,0.80
2018-08-13T00:39:15.685Z,0.90
2018-08-13T00:41:43.391Z,0.70
2018-08-13T00:44:11.135Z,0.50
2018-08-13T00:46:38.888Z,0.67
2018-08-13T00:49:06.551Z,0.60
2018-08-13T00:51:35.118Z,0.60
2018-08-13T00:54:02.949Z,0.50
2018-08-13T00:56:30.686Z,0.60
2018-08-13T00:58:58.453Z,0.60
2018-08-13T01:01:26.226Z,0.80
2018-08-13T01:03:54.247Z,0.73
2018-08-13T01:06:22.020Z,0.60
2018-08-13T01:08:49.997Z,0.70
2018-08-13T01:11:17.776Z,0.73
2018-08-13T01:13:45.483Z,0.87
2018-08-13T01:16:13.263Z,0.87
2018-08-13T01:18:40.955Z,0.50
2018-08-13T01:21:08.648Z,0.63
2018-08-13T01:23:36.352Z,0.70
2018-08-13T01:26:04.043Z,0.80
2018-08-13T01:28:31.772Z,0.80
2018-08-13T01:30:59.539Z,0.80
2018-08-13T01:33:27.177Z,0.70
2018-08-13T01:35:55.022Z,0.60
2018-08-13T01:38:22.710Z,0.53
2018-08-13T01:40:50.389Z,0.40
2018-08-13T01:43:18.137Z,0.70
2018-08-13T01:45:45.803Z,0.70
2018-08-13T01:48:13.464Z,0.60
2018-08-13T01:50:41.156Z,0.60
2018-08-13T01:53:09.629Z,0.70
2018-08-13T01:55:37.417Z,0.80
2018-08-13T01:58:05.439Z,0.50
2018-08-13T02:00:33.111Z,0.70
2018-08-13T02:03:00.807Z,0.60
2018-08-13T02:05:28.504Z,0.67
2018-08-13T02:07:56.175Z,0.70
2018-08-13T02:10:23.885Z,0.60
2018-08-13T02:12:51.649Z,0.90
2018-08-13T02:15:19.360Z,0.77
2018-08-13T02:17:47.144Z,0.50
2018-08-13T02:20:14.900Z,0.77
2018-08-13T02:22:42.617Z,0.70
2018-08-13T02:25:10.353Z,0.60
2018-08-13T02:27:38.257Z,0.70
2018-08-13T02:30:08.071Z,0.93
2018-08-13T02:32:35.883Z,0.83
2018-08-13T02:35:03.954Z,0.73
2018-08-13T02:37:31.704Z,0.70
2018-08-13T02:39:59.366Z,1.10
2018-08-13T02:42:27.158Z,0.73
2018-08-13T02:44:54.876Z,1.10
2018-08-13T02:47:22.617Z,0.73
2018-08-13T02:49:50.448Z,0.77
2018-08-13T02:52:18.162Z,0.80
2018-08-13T02:54:45.862Z,0.80
2018-08-13T02:57:13.559Z,0.50
2018-08-13T02:59:41.246Z,0.60
2018-08-13T03:02:08.952Z,0.80
2018-08-13T03:04:36.785Z,0.70
2018-08-13T03:07:04.750Z,0.83
2018-08-13T03:09:32.561Z,0.73
2018-08-13T03:12:00.256Z,0.60
2018-08-13T03:14:28.014Z,0.87
2018-08-13T03:16:55.742Z,0.90
2018-08-13T03:19:23.638Z,0.70
2018-08-13T03:21:51.323Z,0.60
2018-08-13T03:24:19.037Z,0.80
2018-08-13T03:26:46.764Z,0.73
2018-08-13T03:29:14.517Z,0.87
2018-08-13T03:31:42.202Z,1.10
2018-08-13T03:34:09.934Z,0.80
2018-08-13T03:36:37.642Z,0.93
2018-08-13T03:39:08.568Z,0.60
2018-08-13T03:41:36.338Z,1.00
2018-08-13T03:44:04.100Z,0.60
2018-08-13T03:46:31.776Z,1.00
2018-08-13T03:48:59.461Z,0.60
2018-08-13T03:51:27.173Z,1.00
2018-08-13T03:53:54.857Z,0.70
2018-08-13T03:56:22.733Z,0.80
2018-08-13T03:58:50.469Z,0.70
2018-08-13T04:01:18.146Z,0.73
2018-08-13T04:03:45.929Z,0.80
2018-08-13T04:06:13.622Z,1.00
2018-08-13T04:08:41.302Z,0.73
2018-08-13T04:11:09.038Z,0.90
2018-08-13T04:13:36.773Z,0.70
2018-08-13T04:16:04.492Z,0.90
2018-08-13T04:18:32.378Z,1.20
2018-08-13T04:21:00.097Z,0.70
2018-08-13T04:23:27.811Z,0.80
2018-08-13T04:25:55.569Z,1.13
2018-08-13T04:28:23.276Z,0.80
2018-08-13T04:30:50.988Z,0.70
2018-08-13T04:33:18.714Z,0.70
2018-08-13T04:35:46.439Z,0.93
2018-08-13T04:38:14.111Z,1.00
2018-08-13T04:40:41.791Z,0.80
2018-08-13T04:43:09.444Z,0.90
2018-08-13T04:45:37.121Z,0.80
2018-08-13T04:48:05.217Z,0.67
2018-08-13T04:50:32.921Z,0.73
2018-08-13T04:53:00.656Z,0.50
2018-08-13T04:55:28.416Z,0.70
2018-08-13T04:57:56.117Z,0.70
2018-08-13T05:00:23.809Z,0.63
2018-08-13T05:02:51.497Z,0.90
2018-08-13T05:05:19.198Z,0.57
2018-08-13T05:07:46.919Z,0.70
2018-08-13T05:10:14.593Z,0.80
2018-08-13T05:12:42.287Z,0.60
2018-08-13T05:15:10.691Z,0.83
2018-08-13T05:17:38.461Z,0.60
2018-08-13T05:20:07.060Z,0.60
2018-08-13T05:22:34.794Z,0.50
2018-08-13T05:25:02.748Z,0.80
2018-08-13T05:27:30.421Z,0.73
2018-08-13T05:29:58.163Z,0.60
2018-08-13T05:32:25.866Z,0.60
2018-08-13T05:34:53.514Z,0.40
2018-08-13T05:37:21.205Z,0.40
2018-08-13T05:39:48.904Z,0.83
2018-08-13T05:42:16.586Z,0.90
2018-08-13T05:44:44.222Z,0.77
2018-08-13T05:47:12.025Z,0.47
2018-08-13T05:49:39.701Z,0.53
2018-08-13T05:52:07.432Z,0.63
2018-08-13T05:54:35.165Z,0.70
2018-08-13T05:57:02.902Z,0.90
2018-08-13T05:59:30.561Z,0.70
2018-08-13T06:01:58.293Z,0.60
2018-08-13T06:04:26.004Z,0.70
2018-08-13T06:06:53.688Z,0.67
2018-08-13T06:09:21.448Z,0.70
2018-08-13T06:11:49.130Z,0.70
2018-08-13T06:14:16.884Z,0.90
2018-08-13T06:16:44.714Z,0.97
2018-08-13T06:19:12.398Z,0.90
2018-08-13T06:21:40.062Z,0.90
2018-08-13T06:24:07.826Z,0.97
2018-08-13T06:26:35.520Z,1.00
2018-08-13T06:29:04.010Z,1.37
2018-08-13T06:31:31.771Z,1.50
2018-08-13T06:33:59.626Z,1.30
2018-08-13T06:36:27.289Z,1.50
2018-08-13T06:38:55.045Z,1.30
2018-08-13T06:41:22.785Z,1.27
2018-08-13T06:43:50.525Z,1.60
2018-08-13T06:46:18.262Z,1.67
2018-08-13T06:48:46.021Z,1.80
2018-08-13T06:51:13.788Z,1.13
2018-08-13T06:53:41.544Z,1.50
2018-08-13T06:56:09.948Z,1.23
2018-08-13T06:58:37.664Z,1.60
2018-08-13T07:01:05.706Z,1.53
2018-08-13T07:03:33.518Z,1.80
2018-08-13T07:06:01.351Z,1.70
2018-08-13T07:08:29.125Z,1.40
2018-08-13T07:10:56.890Z,2.10
2018-08-13T07:13:24.631Z,1.57
2018-08-13T07:15:52.402Z,1.23
2018-08-13T07:18:20.117Z,1.80
2018-08-13T07:20:47.852Z,1.50
2018-08-13T07:23:15.682Z,1.60
2018-08-13T07:25:43.453Z,1.67
2018-08-13T07:28:11.207Z,1.70
2018-08-13T07:30:39.049Z,1.70
2018-08-13T07:33:06.806Z,1.70
2018-08-13T07:35:34.550Z,1.43
2018-08-13T07:38:02.357Z,1.50
2018-08-13T07:40:30.153Z,1.30
2018-08-13T07:42:57.820Z,1.40
2018-08-13T07:45:25.566Z,1.30
2018-08-13T07:47:53.301Z,1.30
2018-08-13T07:50:21.006Z,1.40
2018-08-13T07:52:48.831Z,1.40
2018-08-13T07:55:16.572Z,1.60
2018-08-13T07:57:44.237Z,1.73
2018-08-13T08:00:14.618Z,1.30
2018-08-13T08:02:42.471Z,1.67
2018-08-13T08:05:10.196Z,1.23
2018-08-13T08:07:37.957Z,1.77
2018-08-13T08:10:08.033Z,1.20
2018-08-13T08:12:35.797Z,1.27
2018-08-13T08:15:04.882Z,1.17
2018-08-13T08:17:32.615Z,1.43
2018-08-13T08:20:00.280Z,1.03
2018-08-13T08:22:28.171Z,1.00
2018-08-13T08:24:55.869Z,1.40
2018-08-13T08:27:23.597Z,1.13
2018-08-13T08:29:51.377Z,1.00
2018-08-13T08:32:19.156Z,1.20
2018-08-13T08:34:46.959Z,1.20
2018-08-13T08:37:14.692Z,1.20
2018-08-13T08:39:42.363Z,1.03
2018-08-13T08:42:10.114Z,1.03
2018-08-13T08:44:37.910Z,0.93
2018-08-13T08:47:05.760Z,1.10
2018-08-13T08:49:33.508Z,1.10
2018-08-13T08:52:01.270Z,1.40
2018-08-13T08:54:28.987Z,1.10
2018-08-13T08:56:56.686Z,1.37
2018-08-13T08:59:24.417Z,1.30
2018-08-13T09:01:52.182Z,1.10
2018-08-13T09:04:19.925Z,1.07
2018-08-13T09:06:47.678Z,0.97
2018-08-13T09:09:15.398Z,0.70
2018-08-13T09:11:43.226Z,1.00
2018-08-13T09:14:11.156Z,0.80
2018-08-13T09:16:39.847Z,0.80
2018-08-13T09:19:18.658Z,0.93
2018-08-13T09:21:50.418Z,0.87
2018-08-13T09:24:29.213Z,0.70
2018-08-13T09:27:08.062Z,1.00
2018-08-13T09:29:46.971Z,0.97
2018-08-13T09:32:28.264Z,1.00
2018-08-13T09:35:00.406Z,0.80
2018-08-13T09:37:28.170Z,0.80
2018-08-13T09:39:56.103Z,0.60
2018-08-13T09:42:24.272Z,0.70
2018-08-13T09:44:52.309Z,0.73
2018-08-13T09:47:19.990Z,0.80
2018-08-13T09:49:47.928Z,0.80
2018-08-13T09:52:15.610Z,0.60
2018-08-13T09:54:43.379Z,0.50
2018-08-13T09:57:11.229Z,0.67
2018-08-13T09:59:38.904Z,0.53
2018-08-13T10:02:06.625Z,0.70
2018-08-13T10:04:34.466Z,0.90
2018-08-13T10:07:02.313Z,0.80
2018-08-13T10:09:29.978Z,0.70
2018-08-13T10:11:57.851Z,0.70
2018-08-13T10:14:25.638Z,0.70
2018-08-13T10:16:53.453Z,1.03
2018-08-13T10:19:21.071Z,0.73
2018-08-13T10:21:48.801Z,0.73
2018-08-13T10:24:16.453Z,0.90
2018-08-13T10:26:44.217Z,0.60
2018-08-13T10:29:11.893Z,0.63
2018-08-13T10:31:39.565Z,0.53
2018-08-13T10:34:07.248Z,0.70
2018-08-13T10:36:34.941Z,0.80
2018-08-13T10:39:03.809Z,0.50
2018-08-13T10:41:31.547Z,0.70
2018-08-13T10:43:59.202Z,0.70
2018-08-13T10:46:26.918Z,0.50
2018-08-13T10:48:54.629Z,0.60
2018-08-13T10:51:22.334Z,1.50
2018-08-13T10:53:50.041Z,0.60
2018-08-13T10:56:17.762Z,0.50
2018-08-13T10:58:45.525Z,0.70
2018-08-13T11:01:13.568Z,0.60
2018-08-13T11:03:41.314Z,0.80
2018-08-13T11:06:08.993Z,0.50
2018-08-13T11:08:36.722Z,0.87
2018-08-13T11:11:04.511Z,0.70
2018-08-13T11:13:32.217Z,0.90
2018-08-13T11:16:00.038Z,0.80
2018-08-13T11:18:27.729Z,1.00
2018-08-13T11:20:55.404Z,0.63
2018-08-13T11:23:23.107Z,0.70
2018-08-13T11:25:50.813Z,0.60
2018-08-13T11:28:18.515Z,0.50
2018-08-13T11:30:46.252Z,1.00
2018-08-13T11:33:13.954Z,0.73
2018-08-13T11:35:41.677Z,0.90
2018-08-13T11:38:09.343Z,0.80
2018-08-13T11:40:37.079Z,0.93
2018-08-13T11:43:04.821Z,0.90
2018-08-13T11:45:32.540Z,0.80
2018-08-13T11:48:00.251Z,0.90
2018-08-13T11:50:27.930Z,0.90
2018-08-13T11:52:55.602Z,0.80
2018-08-13T11:55:23.318Z,0.60
2018-08-13T11:57:51.034Z,0.80
2018-08-13T12:00:18.945Z,0.70
2018-08-13T12:02:46.655Z,0.70
2018-08-13T12:05:15.312Z,1.43
2018-08-13T12:07:43.517Z,0.97
2018-08-13T12:10:11.982Z,0.90
2018-08-13T12:12:40.707Z,0.93
2018-08-13T12:15:09.359Z,0.90
2018-08-13T12:17:37.090Z,0.97
2018-08-13T12:20:07.166Z,1.20
2018-08-13T12:22:34.853Z,1.43
2018-08-13T12:25:02.581Z,1.00
2018-08-13T12:27:30.336Z,0.87
2018-08-13T12:29:58.002Z,0.80
2018-08-13T12:32:25.872Z,0.80
2018-08-13T12:34:53.551Z,1.37
2018-08-13T12:37:21.201Z,1.10
2018-08-13T12:39:48.912Z,1.00
2018-08-13T12:42:16.572Z,0.90
2018-08-13T12:44:44.239Z,1.30
2018-08-13T12:47:11.973Z,1.03
2018-08-13T12:49:39.667Z,1.00
2018-08-13T12:52:07.471Z,1.00
2018-08-13T12:54:35.173Z,1.57
2018-08-13T12:57:02.902Z,2.13
2018-08-13T12:59:30.614Z,1.40
2018-08-13T13:01:58.318Z,1.90
2018-08-13T13:04:26.006Z,1.67
2018-08-13T13:06:53.672Z,1.77
2018-08-13T13:09:21.747Z,1.83
2018-08-13T13:11:49.561Z,2.20
2018-08-13T13:14:17.321Z,2.13
2018-08-13T13:16:45.034Z,1.93
2018-08-13T13:19:12.753Z,1.80
2018-08-13T13:21:40.474Z,1.53
2018-08-13T13:24:08.300Z,1.90
2018-08-13T13:26:36.098Z,1.40
2018-08-13T13:29:04.293Z,1.67
2018-08-13T13:31:31.991Z,1.50
2018-08-13T13:33:59.711Z,1.10
2018-08-13T13:36:27.385Z,1.57
2018-08-13T13:38:55.101Z,1.80
2018-08-13T13:41:22.785Z,1.70
2018-08-13T13:43:50.526Z,2.50
2018-08-13T13:46:18.310Z,2.03
2018-08-13T13:48:50.493Z,2.50
2018-08-13T13:51:18.385Z,1.60
2018-08-13T13:53:46.127Z,2.13
2018-08-13T13:56:13.832Z,1.70
2018-08-13T13:58:41.563Z,2.43
2018-08-13T14:01:09.326Z,2.07
2018-08-13T14:03:37.070Z,1.70
2018-08-13T14:06:04.897Z,2.00
2018-08-13T14:08:32.625Z,1.90
2018-08-13T14:11:00.451Z,2.00
2018-08-13T14:13:28.125Z,1.73
2018-08-13T14:15:55.881Z,2.00
2018-08-13T14:18:23.577Z,1.70
2018-08-13T14:20:51.344Z,1.50
2018-08-13T14:23:19.237Z,2.23
2018-08-13T14:25:46.919Z,2.17
2018-08-13T14:28:14.655Z,1.80
2018-08-13T14:30:42.422Z,2.40
2018-08-13T14:33:10.140Z,2.03
2018-08-13T14:35:37.911Z,1.80
2018-08-13T14:38:05.759Z,1.43
2018-08-13T14:40:33.487Z,1.73
2018-08-13T14:43:01.167Z,2.20
2018-08-13T14:45:29.072Z,1.93
2018-08-13T14:47:56.761Z,1.80
2018-08-13T14:50:24.474Z,2.13
2018-08-13T14:52:52.163Z,2.00
2018-08-13T14:55:21.010Z,1.70
2018-08-13T14:57:48.760Z,1.60
2018-08-13T15:00:21.265Z,1.77
2018-08-13T15:02:49.423Z,1.80
2018-08-13T15:05:17.477Z,2.30
2018-08-13T15:07:45.241Z,2.33
2018-08-13T15:10:14.915Z,1.97
2018-08-13T15:12:43.153Z,2.00
2018-08-13T15:15:12.022Z,1.90
2018-08-13T15:17:40.455Z,1.57
2018-08-13T15:20:11.594Z,1.47
2018-08-13T15:22:39.337Z,1.53
2018-08-13T15:25:07.017Z,2.00
2018-08-13T15:27:35.381Z,1.90
2018-08-13T15:30:03.478Z,1.73
2018-08-13T15:32:31.174Z,1.50
2018-08-13T15:34:58.909Z,1.57
2018-08-13T15:37:26.600Z,1.27
2018-08-13T15:39:54.255Z,1.40
2018-08-13T15:42:22.022Z,1.60
2018-08-13T15:44:49.765Z,1.30
2018-08-13T15:47:17.487Z,1.37
2018-08-13T15:49:45.252Z,1.60
2018-08-13T15:52:12.956Z,1.33
2018-08-13T15:54:40.655Z,1.53
2018-08-13T15:57:08.345Z,1.27
2018-08-13T15:59:36.112Z,1.37
2018-08-13T16:02:03.898Z,1.33
2018-08-13T16:04:31.577Z,1.30
2018-08-13T16:06:59.430Z,1.50
2018-08-13T16:09:27.214Z,1.47
2018-08-13T16:11:54.906Z,1.40
2018-08-13T16:14:23.082Z,1.73
2018-08-13T16:16:50.830Z,1.73
2018-08-13T16:19:18.554Z,1.60
2018-08-13T16:21:46.233Z,1.87
2018-08-13T16:24:13.978Z,1.43
2018-08-13T16:26:41.726Z,1.70
2018-08-13T16:29:09.510Z,1.60
2018-08-13T16:31:37.237Z,1.90
2018-08-13T16:34:05.027Z,1.60
2018-08-13T16:36:32.729Z,1.70
2018-08-13T16:39:00.418Z,1.80
2018-08-13T16:41:28.105Z,2.00
2018-08-13T16:43:55.828Z,1.80
2018-08-13T16:46:23.521Z,1.60
2018-08-13T16:48:51.215Z,1.70
2018-08-13T16:51:18.945Z,1.50
2018-08-13T16:53:46.704Z,1.40
2018-08-13T16:56:14.550Z,1.77
2018-08-13T16:58:42.294Z,1.63
2018-08-13T17:01:10.123Z,1.60
2018-08-13T17:03:37.822Z,2.07
2018-08-13T17:06:05.769Z,1.43
2018-08-13T17:08:33.603Z,1.70
2018-08-13T17:11:01.415Z,1.37
2018-08-13T17:13:29.329Z,1.70
2018-08-13T17:15:57.051Z,1.43
2018-08-13T17:18:24.809Z,1.57
2018-08-13T17:20:52.555Z,1.20
2018-08-13T17:23:20.388Z,1.50
2018-08-13T17:25:48.176Z,1.27
2018-08-13T17:28:15.966Z,1.37
2018-08-13T17:30:43.693Z,1.20
2018-08-13T17:33:11.509Z,1.70
2018-08-13T17:35:39.337Z,1.30
2018-08-13T17:38:08.681Z,1.27
2018-08-13T17:40:36.447Z,1.17
2018-08-13T17:43:05.071Z,1.17
2018-08-13T17:45:32.731Z,1.47
2018-08-13T17:48:00.425Z,1.10
2018-08-13T17:50:28.282Z,1.67
2018-08-13T17:52:56.217Z,1.17
2018-08-13T17:55:30.614Z,1.43
2018-08-13T17:57:58.385Z,1.23
2018-08-13T18:00:26.831Z,1.23
2018-08-13T18:02:54.601Z,1.80
2018-08-13T18:05:23.973Z,1.30
2018-08-13T18:07:52.285Z,1.50
2018-08-13T18:10:28.455Z,1.30
2018-08-13T18:12:56.917Z,1.30
2018-08-13T18:15:24.634Z,1.00
2018-08-13T18:17:52.517Z,1.00
2018-08-13T18:20:20.318Z,1.10
2018-08-13T18:22:48.088Z,1.10
2018-08-13T18:25:16.285Z,1.07
2018-08-13T18:27:45.462Z,1.03
2018-08-13T18:30:15.636Z,0.90
2018-08-13T18:32:43.409Z,1.20
2018-08-13T18:35:11.664Z,0.80
2018-08-13T18:37:39.475Z,1.27
2018-08-13T18:40:13.043Z,1.30
2018-08-13T18:42:40.741Z,2.20
2018-08-13T18:45:09.384Z,1.07
2018-08-13T18:47:37.300Z,1.17
2018-08-13T18:50:06.831Z,1.20
2018-08-13T18:52:34.516Z,1.03
2018-08-13T18:55:02.366Z,0.93
2018-08-13T18:57:30.145Z,1.00
2018-08-13T18:59:57.912Z,1.00
2018-08-13T19:02:25.683Z,1.10
2018-08-13T19:04:53.455Z,0.90
2018-08-13T19:07:21.168Z,0.90
2018-08-13T19:09:49.144Z,1.20
2018-08-13T19:12:16.859Z,0.93
2018-08-13T19:14:44.661Z,1.20
2018-08-13T19:17:12.408Z,1.03
2018-08-13T19:19:40.106Z,1.10
2018-08-13T19:22:07.864Z,0.97
2018-08-13T19:24:35.713Z,0.70
2018-08-13T19:27:03.571Z,0.97
2018-08-13T19:29:31.352Z,1.10
2018-08-13T19:31:59.175Z,1.20
2018-08-13T19:34:26.909Z,1.10
2018-08-13T19:36:54.727Z,1.13
2018-08-13T19:39:22.628Z,1.10
2018-08-13T19:41:50.452Z,1.17
2018-08-13T19:44:18.201Z,0.73
2018-08-13T19:46:46.102Z,0.80
2018-08-13T19:49:13.958Z,1.00
2018-08-13T19:51:41.677Z,0.90
2018-08-13T19:54:09.371Z,1.10
2018-08-13T19:56:37.330Z,1.00
2018-08-13T19:59:05.086Z,0.80
2018-08-13T20:01:32.850Z,0.90
2018-08-13T20:04:00.684Z,1.07
2018-08-13T20:06:28.467Z,1.00
2018-08-13T20:08:56.297Z,1.10
2018-08-13T20:11:24.074Z,0.97
2018-08-13T20:13:59.693Z,0.77
2018-08-13T20:16:27.381Z,0.83
2018-08-13T20:18:55.061Z,0.63
2018-08-13T20:21:22.778Z,1.03
2018-08-13T20:23:50.463Z,0.90
2018-08-13T20:26:19.100Z,0.90
2018-08-13T20:28:46.828Z,0.90
2018-08-13T20:31:14.544Z,1.20
2018-08-13T20:33:42.233Z,0.80
2018-08-13T20:36:09.966Z,0.80
2018-08-13T20:38:37.746Z,0.70
2018-08-13T20:41:05.441Z,0.80
2018-08-13T20:43:33.329Z,0.70
2018-08-13T20:46:01.009Z,0.90
2018-08-13T20:48:28.674Z,0.80
2018-08-13T20:50:56.453Z,0.90
2018-08-13T20:53:24.149Z,0.80
2018-08-13T20:55:51.821Z,0.80
2018-08-13T20:58:19.595Z,1.00
2018-08-13T21:00:47.446Z,0.80
2018-08-13T21:03:15.196Z,0.83
2018-08-13T21:05:43.006Z,0.83
2018-08-13T21:08:10.695Z,0.87
2018-08-13T21:10:38.405Z,0.87
2018-08-13T21:13:06.420Z,0.80
2018-08-13T21:15:34.125Z,0.70
2018-08-13T21:18:01.823Z,0.87
2018-08-13T21:20:29.625Z,0.80
2018-08-13T21:22:57.427Z,0.80
2018-08-13T21:25:25.248Z,0.77
2018-08-13T21:27:53.112Z,0.67
2018-08-13T21:30:20.872Z,0.50
2018-08-13T21:32:48.678Z,0.90
2018-08-13T21:35:19.101Z,0.80
2018-08-13T21:37:47.113Z,0.60
2018-08-13T21:40:14.853Z,0.60
2018-08-13T21:42:42.863Z,0.80
2018-08-13T21:45:11.150Z,0.80
2018-08-13T21:47:39.238Z,0.80
2018-08-13T21:50:18.937Z,0.70
2018-08-13T21:52:47.234Z,0.97
2018-08-13T21:55:14.987Z,0.80
2018-08-13T21:57:42.665Z,0.80
2018-08-13T22:00:35.295Z,0.90
2018-08-13T22:03:03.264Z,0.97
2018-08-13T22:05:31.153Z,0.80
2018-08-13T22:07:59.042Z,0.73
2018-08-13T22:10:26.821Z,0.67
2018-08-13T22:12:54.591Z,0.50
2018-08-13T22:15:29.566Z,0.67
2018-08-13T22:17:58.819Z,0.80
2018-08-13T22:20:26.957Z,0.70
2018-08-13T22:22:55.850Z,0.53
2018-08-13T22:25:26.257Z,0.90
2018-08-13T22:27:53.984Z,0.70
2018-08-13T22:30:21.790Z,0.50
2018-08-13T22:32:49.522Z,0.70
2018-08-13T22:35:17.316Z,0.60
2018-08-13T22:37:45.036Z,0.57
2018-08-13T22:40:15.376Z,0.53
2018-08-13T22:42:44.090Z,0.87
2018-08-13T22:45:12.014Z,0.77
2018-08-13T22:47:40.346Z,0.70
2018-08-13T22:50:09.631Z,0.60
2018-08-13T22:52:37.338Z,0.80
2018-08-13T22:55:06.698Z,0.70
2018-08-13T22:57:34.344Z,0.60
2018-08-13T23:00:02.192Z,0.40
2018-08-13T23:02:29.912Z,0.67
2018-08-13T23:04:57.652Z,0.60
2018-08-13T23:07:25.590Z,0.53
2018-08-13T23:09:53.307Z,0.77
2018-08-13T23:12:21.058Z,0.80
2018-08-13T23:14:48.884Z,0.70
2018-08-13T23:17:16.554Z,0.90
2018-08-13T23:19:44.271Z,0.90
2018-08-13T23:22:22.033Z,0.90
2018-08-13T23:24:49.706Z,1.00
2018-08-13T23:27:17.389Z,0.90
2018-08-13T23:29:45.092Z,0.70
2018-08-13T23:32:12.762Z,1.07
2018-08-13T23:34:40.476Z,0.83
2018-08-13T23:37:08.193Z,0.90
2018-08-13T23:39:35.836Z,1.10
2018-08-13T23:42:03.566Z,1.13
2018-08-13T23:44:31.278Z,0.93
2018-08-13T23:46:58.934Z,0.80
2018-08-13T23:49:26.612Z,1.00
2018-08-13T23:51:54.302Z,0.83
2018-08-13T23:54:22.025Z,0.77
2018-08-13T23:56:49.693Z,0.60
2018-08-13T23:59:17.497Z,0.70
